createdAt,value
2024-01-04T00:00:49.629Z,970.222
2024-01-04T00:02:49.461Z,970.260
2024-01-04T00:04:50.394Z,970.173
2024-01-04T00:06:50.099Z,970.148
2024-01-04T00:08:49.977Z,970.311
2024-01-04T00:10:49.758Z,970.151
2024-01-04T00:12:49.594Z,970.127
2024-01-04T00:14:50.235Z,970.287
2024-01-04T00:16:49.999Z,970.270
2024-01-04T00:18:49.739Z,970.343
2024-01-04T00:20:49.669Z,970.105
2024-01-04T00:22:49.460Z,970.355
2024-01-04T00:24:50.294Z,970.286
2024-01-04T00:26:50.127Z,970.218
2024-01-04T00:28:49.899Z,970.221
2024-01-04T00:30:49.932Z,970.329
2024-01-04T00:32:49.838Z,970.205
2024-01-04T00:34:49.732Z,970.256
2024-01-04T00:36:49.461Z,970.247
2024-01-04T00:38:50.312Z,970.247
2024-01-04T00:40:50.070Z,970.142
2024-01-04T00:42:49.930Z,970.344
2024-01-04T00:44:49.792Z,970.348
2024-01-04T00:46:49.748Z,970.402
2024-01-04T00:48:49.699Z,970.407
2024-01-04T00:50:49.655Z,970.378
2024-01-04T00:52:56.861Z,970.412
2024-01-04T00:54:49.989Z,970.432
2024-01-04T00:56:49.799Z,970.503
2024-01-04T00:58:49.635Z,970.627
2024-01-04T01:00:49.463Z,970.627
2024-01-04T01:02:50.320Z,970.654
2024-01-04T01:04:50.263Z,970.654
2024-01-04T01:06:50.212Z,970.848
2024-01-04T01:08:50.145Z,970.578
2024-01-04T01:10:50.091Z,970.508
2024-01-04T01:12:49.695Z,970.532
2024-01-04T01:14:50.375Z,970.519
2024-01-04T01:16:50.180Z,970.596
2024-01-04T01:18:49.927Z,970.607
2024-01-04T01:20:49.714Z,970.664
2024-01-04T01:22:49.488Z,970.826
2024-01-04T01:24:50.113Z,970.690
2024-01-04T01:26:49.965Z,970.641
2024-01-04T01:28:49.687Z,970.740
2024-01-04T01:30:49.558Z,970.710
2024-01-04T01:32:49.512Z,970.824
2024-01-04T01:34:49.408Z,970.768
2024-01-04T01:36:50.200Z,970.813
2024-01-04T01:38:50.062Z,970.725
2024-01-04T01:40:49.868Z,970.874
2024-01-04T01:42:49.631Z,970.651
2024-01-04T01:44:49.766Z,970.709
2024-01-04T01:46:49.673Z,970.621
2024-01-04T01:48:49.697Z,970.675
2024-01-04T01:50:49.787Z,970.728
2024-01-04T01:52:49.534Z,970.585
2024-01-04T01:54:50.337Z,970.857
2024-01-04T01:56:50.133Z,970.674
2024-01-04T01:58:49.938Z,970.823
2024-01-04T02:00:49.647Z,970.692
2024-01-04T02:02:49.446Z,970.759
2024-01-04T02:04:49.384Z,970.717
2024-01-04T02:06:50.479Z,970.733
2024-01-04T02:08:50.382Z,970.730
2024-01-04T02:10:50.220Z,970.789
2024-01-04T02:12:50.057Z,970.771
2024-01-04T02:14:49.919Z,970.782
2024-01-04T02:16:49.687Z,970.862
2024-01-04T02:18:49.651Z,970.856
2024-01-04T02:20:49.612Z,970.851
2024-01-04T02:22:50.347Z,970.788
2024-01-04T02:24:50.121Z,970.841
2024-01-04T02:26:49.805Z,970.894
2024-01-04T02:28:49.795Z,970.752
2024-01-04T02:30:49.583Z,970.768
2024-01-04T02:32:49.488Z,970.888
2024-01-04T02:34:49.413Z,970.887
2024-01-04T02:36:50.223Z,970.846
2024-01-04T02:38:50.143Z,970.907
2024-01-04T02:40:49.838Z,971.037
2024-01-04T02:42:49.678Z,970.983
2024-01-04T02:44:49.582Z,970.974
2024-01-04T02:46:50.411Z,970.950
2024-01-04T02:48:50.338Z,970.997
2024-01-04T02:52:49.936Z,971.084
2024-01-04T02:54:49.765Z,971.163
2024-01-04T02:56:49.635Z,971.029
2024-01-04T02:58:49.393Z,971.029
2024-01-04T03:00:50.362Z,971.177
2024-01-04T03:02:50.327Z,971.250
2024-01-04T03:04:50.088Z,971.149
2024-01-04T03:06:49.840Z,971.146
2024-01-04T03:08:49.787Z,971.246
2024-01-04T03:10:49.525Z,971.215
2024-01-04T03:12:50.417Z,971.199
2024-01-04T03:14:50.164Z,971.085
2024-01-04T03:16:49.950Z,971.142
2024-01-04T03:18:49.922Z,971.221
2024-01-04T03:20:49.811Z,971.146
2024-01-04T03:22:49.593Z,971.248
2024-01-04T03:24:49.401Z,971.274
2024-01-04T03:26:50.220Z,971.317
2024-01-04T03:28:50.080Z,971.244
2024-01-04T03:30:49.901Z,971.273
2024-01-04T03:32:50.115Z,971.137
2024-01-04T03:34:50.129Z,971.155
2024-01-04T03:36:49.906Z,971.164
2024-01-04T03:38:49.768Z,971.212
2024-01-04T03:40:49.516Z,971.172
2024-01-04T03:42:50.110Z,971.157
2024-01-04T03:44:49.778Z,971.194
2024-01-04T03:46:49.690Z,971.248
2024-01-04T03:48:49.632Z,971.101
2024-01-04T03:50:49.563Z,971.172
2024-01-04T03:52:50.300Z,971.384
2024-01-04T03:54:50.109Z,971.323
2024-01-04T03:56:49.973Z,971.311
2024-01-04T03:58:49.733Z,971.265
2024-01-04T04:00:49.473Z,971.383
2024-01-04T04:02:50.393Z,971.388
2024-01-04T04:04:50.267Z,971.424
2024-01-04T04:06:50.164Z,971.424
2024-01-04T04:08:50.150Z,971.497
2024-01-04T04:10:49.922Z,971.522
2024-01-04T04:12:49.724Z,971.459
2024-01-04T04:14:49.574Z,971.505
2024-01-04T04:16:50.339Z,971.521
2024-01-04T04:18:50.225Z,971.389
2024-01-04T04:20:50.193Z,971.306
2024-01-04T04:22:49.988Z,971.545
2024-01-04T04:24:49.759Z,971.528
2024-01-04T04:26:49.669Z,971.604
2024-01-04T04:28:49.413Z,971.844
2024-01-04T04:30:50.224Z,971.712
2024-01-04T04:32:50.235Z,971.484
2024-01-04T04:34:50.216Z,971.636
2024-01-04T04:36:50.185Z,971.584
2024-01-04T04:38:50.017Z,971.766
2024-01-04T04:40:49.789Z,971.800
2024-01-04T04:42:49.638Z,971.781
2024-01-04T04:44:49.517Z,971.706
2024-01-04T04:46:50.291Z,971.856
2024-01-04T04:48:50.202Z,971.821
2024-01-04T04:50:50.139Z,971.831
2024-01-04T04:52:49.882Z,971.875
2024-01-04T04:54:49.707Z,971.969
2024-01-04T04:56:49.564Z,971.915
2024-01-04T04:58:50.343Z,972.049
2024-01-04T05:00:50.202Z,971.972
2024-01-04T05:02:49.976Z,972.072
2024-01-04T05:04:49.782Z,971.990
2024-01-04T05:06:49.813Z,972.098
2024-01-04T05:08:49.688Z,972.193
2024-01-04T05:10:49.479Z,972.157
2024-01-04T05:12:50.240Z,972.190
2024-01-04T05:14:49.954Z,972.162
2024-01-04T05:16:49.654Z,972.087
2024-01-04T05:18:49.630Z,972.158
2024-01-04T05:20:49.621Z,972.365
2024-01-04T05:22:50.318Z,972.344
2024-01-04T05:24:50.134Z,972.272
2024-01-04T05:26:49.990Z,972.332
2024-01-04T05:28:49.760Z,972.493
2024-01-04T05:30:49.635Z,972.402
2024-01-04T05:32:49.554Z,972.471
2024-01-04T05:34:49.420Z,972.444
2024-01-04T05:36:50.237Z,972.582
2024-01-04T05:38:50.079Z,972.586
2024-01-04T05:40:49.851Z,972.727
2024-01-04T05:42:49.719Z,972.652
2024-01-04T05:44:49.562Z,972.804
2024-01-04T05:46:50.304Z,972.783
2024-01-04T05:48:50.175Z,972.905
2024-01-04T05:50:50.007Z,972.944
2024-01-04T05:52:49.727Z,973.031
2024-01-04T05:54:49.555Z,972.974
2024-01-04T05:56:49.413Z,973.052
2024-01-04T05:58:50.182Z,972.875
2024-01-04T06:00:50.017Z,973.088
2024-01-04T06:02:49.866Z,973.079
2024-01-04T06:04:49.823Z,973.147
2024-01-04T06:06:49.700Z,973.112
2024-01-04T06:08:49.742Z,973.146
2024-01-04T06:10:49.511Z,973.205
2024-01-04T06:12:50.304Z,973.229
2024-01-04T06:14:50.147Z,973.398
2024-01-04T06:16:49.953Z,973.424
2024-01-04T06:18:49.829Z,973.561
2024-01-04T06:20:49.890Z,973.714
2024-01-04T06:22:49.748Z,973.403
2024-01-04T06:24:49.368Z,973.523
2024-01-04T06:26:50.277Z,973.605
2024-01-04T06:28:50.205Z,973.643
2024-01-04T06:30:50.087Z,973.648
2024-01-04T06:32:49.877Z,973.744
2024-01-04T06:34:49.905Z,973.736
2024-01-04T06:36:49.655Z,973.920
2024-01-04T06:38:49.496Z,973.870
2024-01-04T06:40:50.314Z,973.905
2024-01-04T06:42:50.091Z,973.829
2024-01-04T06:44:49.995Z,973.820
2024-01-04T06:46:49.717Z,974.029
2024-01-04T06:48:49.710Z,973.970
2024-01-04T06:50:49.637Z,974.060
2024-01-04T06:52:49.388Z,974.110
2024-01-04T06:54:50.177Z,974.039
2024-01-04T06:56:49.881Z,974.199
2024-01-04T06:58:49.614Z,974.189
2024-01-04T07:00:49.459Z,974.074
2024-01-04T07:02:50.318Z,974.130
2024-01-04T07:04:50.323Z,974.118
2024-01-04T07:06:50.071Z,974.313
2024-01-04T07:08:49.735Z,974.326
2024-01-04T07:10:49.500Z,974.207
2024-01-04T07:12:50.331Z,974.288
2024-01-04T07:14:50.410Z,974.246
2024-01-04T07:16:50.141Z,974.296
2024-01-04T07:18:50.059Z,974.165
2024-01-04T07:20:49.787Z,974.398
2024-01-04T07:22:49.596Z,974.270
2024-01-04T07:24:49.434Z,974.331
2024-01-04T07:26:50.270Z,974.219
2024-01-04T07:28:50.270Z,974.272
2024-01-04T07:30:50.059Z,974.374
2024-01-04T07:32:49.988Z,974.267
2024-01-04T07:34:56.447Z,974.293
2024-01-04T07:36:49.489Z,974.405
2024-01-04T07:38:50.357Z,974.405
2024-01-04T07:40:50.148Z,974.396
2024-01-04T07:42:49.934Z,974.491
2024-01-04T07:44:54.005Z,974.430
2024-01-04T07:46:49.352Z,974.543
2024-01-04T07:48:50.361Z,974.381
2024-01-04T07:50:50.325Z,974.509
2024-01-04T07:52:50.247Z,974.533
2024-01-04T07:54:51.637Z,974.577
2024-01-04T07:56:49.687Z,974.585
2024-01-04T07:58:49.463Z,974.691
2024-01-04T08:00:50.328Z,974.691
2024-01-04T08:02:50.110Z,974.813
2024-01-04T08:04:49.905Z,974.842
2024-01-04T08:06:49.602Z,974.704
2024-01-04T08:08:50.354Z,974.699
2024-01-04T08:10:50.156Z,974.746
2024-01-04T08:12:49.924Z,974.787
2024-01-04T08:14:49.631Z,974.771
2024-01-04T08:16:49.412Z,974.777
2024-01-04T08:18:50.117Z,974.998
2024-01-04T08:20:50.174Z,974.887
2024-01-04T08:22:50.006Z,974.998
2024-01-04T08:24:49.663Z,974.976
2024-01-04T08:26:49.581Z,974.969
2024-01-04T08:28:50.304Z,974.908
2024-01-04T08:30:50.284Z,975.052
2024-01-04T08:32:50.252Z,975.098
2024-01-04T08:34:50.132Z,975.073
2024-01-04T08:36:49.919Z,975.299
2024-01-04T08:38:49.784Z,975.090
2024-01-04T08:40:49.610Z,975.184
2024-01-04T08:42:49.379Z,975.184
2024-01-04T08:44:50.235Z,975.110
2024-01-04T08:46:49.981Z,975.123
2024-01-04T08:48:50.058Z,975.169
2024-01-04T08:50:49.974Z,975.207
2024-01-04T08:52:49.865Z,975.187
2024-01-04T08:54:49.664Z,975.248
2024-01-04T08:56:49.543Z,975.257
2024-01-04T08:58:50.283Z,975.343
2024-01-04T09:00:53.649Z,975.371
2024-01-04T09:02:50.049Z,975.346
2024-01-04T09:04:49.952Z,975.370
2024-01-04T09:06:49.679Z,975.500
2024-01-04T09:08:49.525Z,975.503
2024-01-04T09:10:50.292Z,975.559
2024-01-04T09:12:50.080Z,975.580
2024-01-04T09:14:49.732Z,975.580
2024-01-04T09:16:49.539Z,975.644
2024-01-04T09:18:49.518Z,975.597
2024-01-04T09:20:49.421Z,975.656
2024-01-04T09:22:50.211Z,975.796
2024-01-04T09:24:49.968Z,975.705
2024-01-04T09:26:49.812Z,975.783
2024-01-04T09:28:49.622Z,975.707
2024-01-04T09:30:49.472Z,975.696
2024-01-04T09:32:50.316Z,975.854
2024-01-04T09:34:50.317Z,975.895
2024-01-04T09:36:50.066Z,975.933
2024-01-04T09:38:49.729Z,975.901
2024-01-04T09:40:49.494Z,975.974
2024-01-04T09:42:50.307Z,975.987
2024-01-04T09:44:50.190Z,976.045
2024-01-04T09:46:49.988Z,976.032
2024-01-04T09:48:49.880Z,976.043
2024-01-04T09:50:49.810Z,976.011
2024-01-04T09:52:49.574Z,976.144
2024-01-04T09:54:50.213Z,976.180
2024-01-04T09:56:50.225Z,976.248
2024-01-04T09:58:50.032Z,976.248
2024-01-04T10:00:49.872Z,976.320
2024-01-04T10:02:49.706Z,976.320
2024-01-04T10:04:49.690Z,976.174
2024-01-04T10:06:49.509Z,976.235
2024-01-04T10:08:50.311Z,976.412
2024-01-04T10:10:50.129Z,976.238
2024-01-04T10:12:49.964Z,976.316
2024-01-04T10:14:49.837Z,976.390
2024-01-04T10:16:49.573Z,976.507
2024-01-04T10:18:49.516Z,976.512
2024-01-04T10:20:49.420Z,976.413
2024-01-04T10:22:50.159Z,976.410
2024-01-04T10:24:49.886Z,976.624
2024-01-04T10:26:49.689Z,976.431
2024-01-04T10:28:49.454Z,976.507
2024-01-04T10:30:50.282Z,976.442
2024-01-04T10:32:50.046Z,976.460
2024-01-04T10:34:49.788Z,976.509
2024-01-04T10:36:49.618Z,976.526
2024-01-04T10:38:49.439Z,976.579
2024-01-04T10:40:50.227Z,976.584
2024-01-04T10:42:49.853Z,976.656
2024-01-04T10:44:49.747Z,976.618
2024-01-04T10:46:49.477Z,976.679
2024-01-04T10:48:50.333Z,976.615
2024-01-04T10:50:50.368Z,976.632
2024-01-04T10:52:50.112Z,976.674
2024-01-04T10:54:49.958Z,976.604
2024-01-04T10:56:49.774Z,976.653
2024-01-04T10:58:49.587Z,976.649
2024-01-04T11:00:49.387Z,976.659
2024-01-04T11:02:50.221Z,976.625
2024-01-04T11:04:50.006Z,976.577
2024-01-04T11:06:49.833Z,976.705
2024-01-04T11:08:49.691Z,976.705
2024-01-04T11:10:49.473Z,976.834
2024-01-04T11:12:50.303Z,976.771
2024-01-04T11:14:50.098Z,976.797
2024-01-04T11:16:49.897Z,976.849
2024-01-04T11:18:49.896Z,976.838
2024-01-04T11:20:49.765Z,976.896
2024-01-04T11:22:49.571Z,976.885
2024-01-04T11:24:49.326Z,976.946
2024-01-04T11:26:50.241Z,976.811
2024-01-04T11:28:50.002Z,976.820
2024-01-04T11:30:49.817Z,976.906
2024-01-04T11:32:49.825Z,976.911
2024-01-04T11:34:50.091Z,976.885
2024-01-04T11:36:49.821Z,976.978
2024-01-04T11:38:49.475Z,976.941
2024-01-04T11:40:50.264Z,976.920
2024-01-04T11:42:49.869Z,976.907
2024-01-04T11:44:49.531Z,976.947
2024-01-04T11:46:50.308Z,976.948
2024-01-04T11:48:50.175Z,976.936
2024-01-04T11:50:50.002Z,976.895
2024-01-04T11:52:49.759Z,976.863
2024-01-04T11:54:49.588Z,976.858
2024-01-04T11:56:50.411Z,976.855
2024-01-04T11:58:50.188Z,976.963
2024-01-04T12:00:49.910Z,976.836
2024-01-04T12:02:49.671Z,976.791
2024-01-04T12:04:50.338Z,976.873
2024-01-04T12:06:50.073Z,976.956
2024-01-04T12:08:50.021Z,976.891
2024-01-04T12:10:49.768Z,976.938
2024-01-04T12:12:49.519Z,976.975
2024-01-04T12:14:50.310Z,976.902
2024-01-04T12:16:50.251Z,976.999
2024-01-04T12:18:50.236Z,976.925
2024-01-04T12:20:50.154Z,976.837
2024-01-04T12:22:49.896Z,976.891
2024-01-04T12:24:49.718Z,976.890
2024-01-04T12:26:49.603Z,976.905
2024-01-04T12:28:50.322Z,976.936
2024-01-04T12:30:50.368Z,976.976
2024-01-04T12:32:50.249Z,976.913
2024-01-04T12:34:50.227Z,976.996
2024-01-04T12:36:49.972Z,976.922
2024-01-04T12:38:49.806Z,976.990
2024-01-04T12:40:49.646Z,977.143
2024-01-04T12:42:49.441Z,976.976
2024-01-04T12:44:50.177Z,977.234
2024-01-04T12:46:49.934Z,977.172
2024-01-04T12:48:49.937Z,977.220
2024-01-04T12:50:49.897Z,977.181
2024-01-04T12:52:49.715Z,977.256
2024-01-04T12:54:49.513Z,977.333
2024-01-04T12:56:50.419Z,977.327
2024-01-04T12:58:50.122Z,977.360
2024-01-04T13:00:49.989Z,977.318
2024-01-04T13:02:49.804Z,977.311
2024-01-04T13:04:49.816Z,977.414
2024-01-04T13:06:49.721Z,977.299
2024-01-04T13:08:49.458Z,977.406
2024-01-04T13:10:50.212Z,977.384
2024-01-04T13:12:49.811Z,977.456
2024-01-04T13:14:49.509Z,977.396
2024-01-04T13:16:50.271Z,977.485
2024-01-04T13:18:50.177Z,977.427
2024-01-04T13:20:49.987Z,977.419
2024-01-04T13:22:49.695Z,977.327
2024-01-04T13:24:49.509Z,977.481
2024-01-04T13:26:50.182Z,977.486
2024-01-04T13:28:49.953Z,977.410
2024-01-04T13:30:49.846Z,977.512
2024-01-04T13:32:49.717Z,977.531
2024-01-04T13:34:49.656Z,977.475
2024-01-04T13:36:49.416Z,977.526
2024-01-04T13:38:50.265Z,977.496
2024-01-04T13:40:50.044Z,977.576
2024-01-04T13:42:49.879Z,977.696
2024-01-04T13:44:49.708Z,977.707
2024-01-04T13:46:49.488Z,977.673
2024-01-04T13:48:50.531Z,977.656
2024-01-04T13:50:50.448Z,977.760
2024-01-04T13:52:50.221Z,977.723
2024-01-04T13:54:49.945Z,977.784
2024-01-04T13:56:49.812Z,977.784
2024-01-04T13:58:49.590Z,977.880
2024-01-04T14:00:49.541Z,977.812
2024-01-04T14:02:49.540Z,977.896
2024-01-04T14:04:49.428Z,977.881
2024-01-04T14:06:50.018Z,977.986
2024-01-04T14:08:49.899Z,977.949
2024-01-04T14:10:49.657Z,977.930
2024-01-04T14:12:50.251Z,977.920
2024-01-04T14:14:50.098Z,978.124
2024-01-04T14:16:49.881Z,978.101
2024-01-04T14:18:49.777Z,978.060
2024-01-04T14:20:49.598Z,978.087
2024-01-04T14:22:50.352Z,978.064
2024-01-04T14:24:50.225Z,978.066
2024-01-04T14:26:49.991Z,978.264
2024-01-04T14:28:49.775Z,978.206
2024-01-04T14:30:49.454Z,978.166
2024-01-04T14:32:50.414Z,978.189
2024-01-04T14:34:50.425Z,978.254
2024-01-04T14:36:50.255Z,978.275
2024-01-04T14:38:50.119Z,978.240
2024-01-04T14:40:49.878Z,978.222
2024-01-04T14:42:49.764Z,978.251
2024-01-04T14:44:49.646Z,978.292
2024-01-04T14:46:50.383Z,978.327
2024-01-04T14:48:50.340Z,978.392
2024-01-04T14:50:50.193Z,978.374
2024-01-04T14:52:49.953Z,978.376
2024-01-04T14:54:49.770Z,978.335
2024-01-04T14:56:49.639Z,978.335
2024-01-04T14:58:49.392Z,978.365
2024-01-04T15:00:50.306Z,978.402
2024-01-04T15:02:50.211Z,978.422
2024-01-04T15:04:50.084Z,978.483
2024-01-04T15:06:49.895Z,978.366
2024-01-04T15:08:49.742Z,978.438
2024-01-04T15:10:49.594Z,978.446
2024-01-04T15:12:49.438Z,978.481
2024-01-04T15:14:50.257Z,978.575
2024-01-04T15:16:50.024Z,978.427
2024-01-04T15:18:50.005Z,978.447
2024-01-04T15:20:50.144Z,978.572
2024-01-04T15:22:50.000Z,978.471
2024-01-04T15:24:49.781Z,978.542
2024-01-04T15:26:49.660Z,978.493
2024-01-04T15:28:49.420Z,978.463
2024-01-04T15:30:50.444Z,978.529
2024-01-04T15:32:50.315Z,978.469
2024-01-04T15:34:50.283Z,978.665
2024-01-04T15:36:50.095Z,978.600
2024-01-04T15:38:49.977Z,978.469
2024-01-04T15:40:49.821Z,978.511
2024-01-04T15:42:49.632Z,978.561
2024-01-04T15:44:49.465Z,978.586
2024-01-04T15:46:50.283Z,978.640
2024-01-04T15:48:50.152Z,978.540
2024-01-04T15:50:49.923Z,978.619
2024-01-04T15:52:49.690Z,978.622
2024-01-04T15:54:49.522Z,978.657
2024-01-04T15:56:50.429Z,978.670
2024-01-04T15:58:50.137Z,978.667
2024-01-04T16:00:50.021Z,978.654
2024-01-04T16:02:49.830Z,978.723
2024-01-04T16:04:49.793Z,978.785
2024-01-04T16:06:49.686Z,978.759
2024-01-04T16:08:49.683Z,978.900
2024-01-04T16:10:50.334Z,978.800
2024-01-04T16:12:50.132Z,978.896
2024-01-04T16:14:50.003Z,978.870
2024-01-04T16:16:49.771Z,978.964
2024-01-04T16:18:49.722Z,979.040
2024-01-04T16:20:49.689Z,978.965
2024-01-04T16:22:49.569Z,978.933
2024-01-04T16:24:50.353Z,978.933
2024-01-04T16:26:50.175Z,978.984
2024-01-04T16:28:49.967Z,979.006
2024-01-04T16:30:49.779Z,978.873
2024-01-04T16:32:49.658Z,978.958
2024-01-04T16:34:49.706Z,978.958
2024-01-04T16:36:49.633Z,979.127
2024-01-04T16:38:49.480Z,978.994
2024-01-04T16:40:50.254Z,979.081
2024-01-04T16:42:50.049Z,979.011
2024-01-04T16:44:49.951Z,979.054
2024-01-04T16:46:49.681Z,979.133
2024-01-04T16:48:49.731Z,979.163
2024-01-04T16:50:49.575Z,979.221
2024-01-04T16:52:50.361Z,979.190
2024-01-04T16:54:50.198Z,979.229
2024-01-04T16:56:50.064Z,979.264
2024-01-04T16:58:49.766Z,979.271
2024-01-04T17:00:49.639Z,979.276
2024-01-04T17:02:49.446Z,979.307
2024-01-04T17:04:50.438Z,979.385
2024-01-04T17:06:50.232Z,979.393
2024-01-04T17:08:50.053Z,979.407
2024-01-04T17:10:49.878Z,979.407
2024-01-04T17:12:49.695Z,979.399
2024-01-04T17:14:49.524Z,979.493
2024-01-04T17:16:50.297Z,979.434
2024-01-04T17:18:50.346Z,979.576
2024-01-04T17:20:50.350Z,979.546
2024-01-04T17:22:50.160Z,979.567
2024-01-04T17:24:50.003Z,979.491
2024-01-04T17:26:49.803Z,979.455
2024-01-04T17:28:49.638Z,979.478
2024-01-04T17:30:49.492Z,979.438
2024-01-04T17:32:50.537Z,979.474
2024-01-04T17:34:49.498Z,979.481
2024-01-04T17:36:50.391Z,979.483
2024-01-04T17:38:50.299Z,979.426
2024-01-04T17:40:50.109Z,979.434
2024-01-04T17:42:49.885Z,979.433
2024-01-04T17:44:49.721Z,979.567
2024-01-04T17:46:49.541Z,979.508
2024-01-04T17:48:49.462Z,979.613
2024-01-04T17:50:49.416Z,979.493
2024-01-04T17:52:50.172Z,979.607
2024-01-04T17:54:49.987Z,979.643
2024-01-04T17:56:49.832Z,979.615
2024-01-04T17:58:49.656Z,979.647
2024-01-04T18:00:49.456Z,979.623
2024-01-04T18:02:50.340Z,979.736
2024-01-04T18:04:50.320Z,979.709
2024-01-04T18:06:50.123Z,979.682
2024-01-04T18:08:53.354Z,979.594
2024-01-04T18:10:50.346Z,979.685
2024-01-04T18:12:50.103Z,979.667
2024-01-04T18:14:50.009Z,979.683
2024-01-04T18:16:49.745Z,979.680
2024-01-04T18:18:49.741Z,979.613
2024-01-04T18:20:49.648Z,979.758
2024-01-04T18:22:50.749Z,979.740
2024-01-04T18:24:49.857Z,979.705
2024-01-04T18:26:49.615Z,979.762
2024-01-04T18:28:49.522Z,979.781
2024-01-04T18:30:50.537Z,979.807
2024-01-04T18:32:49.672Z,979.807
2024-01-04T18:34:49.774Z,979.820
2024-01-04T18:36:49.749Z,979.779
2024-01-04T18:38:57.959Z,979.787
2024-01-04T18:40:50.347Z,979.841
2024-01-04T18:42:50.187Z,979.908
2024-01-04T18:44:50.178Z,979.786
2024-01-04T18:46:49.963Z,979.807
2024-01-04T18:48:49.840Z,979.778
2024-01-04T18:50:49.654Z,979.772
2024-01-04T18:52:49.420Z,979.939
2024-01-04T18:54:50.286Z,979.970
2024-01-04T18:56:50.055Z,980.006
2024-01-04T18:58:49.861Z,980.038
2024-01-04T19:00:49.698Z,980.072
2024-01-04T19:02:49.582Z,980.063
2024-01-04T19:04:49.525Z,980.048
2024-01-04T19:06:50.339Z,980.169
2024-01-04T19:08:50.168Z,980.101
2024-01-04T19:10:49.926Z,980.105
2024-01-04T19:12:49.777Z,980.121
2024-01-04T19:14:49.576Z,980.201
2024-01-04T19:16:49.432Z,980.056
2024-01-04T19:18:52.102Z,980.095
2024-01-04T19:20:49.437Z,980.048
2024-01-04T19:22:50.612Z,980.020
2024-01-04T19:24:49.451Z,980.146
2024-01-04T19:26:50.264Z,980.104
2024-01-04T19:28:50.072Z,980.102
2024-01-04T19:30:49.803Z,980.143
2024-01-04T19:32:49.788Z,980.156
2024-01-04T19:34:49.802Z,980.053
2024-01-04T19:36:52.692Z,980.091
2024-01-04T19:38:49.776Z,980.110
2024-01-04T19:40:49.580Z,980.086
2024-01-04T19:42:49.395Z,980.137
2024-01-04T19:44:50.207Z,980.144
2024-01-04T19:46:50.005Z,980.053
2024-01-04T19:48:50.029Z,980.068
2024-01-04T19:50:49.852Z,980.130
2024-01-04T19:52:49.680Z,980.041
2024-01-04T19:54:49.518Z,980.141
2024-01-04T19:56:50.331Z,980.180
2024-01-04T19:58:50.134Z,980.163
2024-01-04T20:00:50.001Z,980.155
2024-01-04T20:02:49.780Z,980.336
2024-01-04T20:04:49.570Z,980.381
2024-01-04T20:06:50.333Z,980.209
2024-01-04T20:08:50.186Z,980.272
2024-01-04T20:10:49.986Z,980.250
2024-01-04T20:12:49.565Z,980.206
2024-01-04T20:14:50.241Z,980.389
2024-01-04T20:16:50.223Z,980.330
2024-01-04T20:18:50.365Z,980.330
2024-01-04T20:20:50.268Z,980.285
2024-01-04T20:22:50.068Z,980.369
2024-01-04T20:24:49.938Z,980.415
2024-01-04T20:26:49.715Z,980.330
2024-01-04T20:28:49.513Z,980.378
2024-01-04T20:30:50.559Z,980.355
2024-01-04T20:32:49.659Z,980.320
2024-01-04T20:34:49.861Z,980.321
2024-01-04T20:36:49.568Z,980.265
2024-01-04T20:38:49.415Z,980.293
2024-01-04T20:40:50.232Z,980.333
2024-01-04T20:42:49.999Z,980.218
2024-01-04T20:44:49.646Z,980.271
2024-01-04T20:46:49.646Z,980.309
2024-01-04T20:48:49.533Z,980.299
2024-01-04T20:50:49.530Z,980.205
2024-01-04T20:52:50.323Z,980.301
2024-01-04T20:54:50.125Z,980.226
2024-01-04T20:56:49.951Z,980.139
2024-01-04T20:58:49.725Z,980.157
2024-01-04T21:00:49.596Z,980.090
2024-01-04T21:02:50.413Z,980.155
2024-01-04T21:04:49.386Z,980.036
2024-01-04T21:06:50.402Z,980.113
2024-01-04T21:08:50.221Z,980.047
2024-01-04T21:10:50.034Z,980.039
2024-01-04T21:12:49.808Z,979.972
2024-01-04T21:14:49.674Z,979.927
2024-01-04T21:16:49.492Z,979.928
2024-01-04T21:18:50.371Z,979.928
2024-01-04T21:20:50.332Z,980.030
2024-01-04T21:22:50.085Z,979.914
2024-01-04T21:24:49.702Z,979.992
2024-01-04T21:26:49.528Z,979.962
2024-01-04T21:28:49.384Z,979.959
2024-01-04T21:30:50.286Z,979.878
2024-01-04T21:32:50.239Z,979.882
2024-01-04T21:34:50.250Z,979.881
2024-01-04T21:36:50.053Z,979.839
2024-01-04T21:38:49.967Z,979.839
2024-01-04T21:40:49.877Z,979.814
2024-01-04T21:42:49.650Z,979.791
2024-01-04T21:44:49.537Z,979.761
2024-01-04T21:46:50.308Z,979.799
2024-01-04T21:48:50.280Z,979.810
2024-01-04T21:50:50.164Z,979.666
2024-01-04T21:52:49.927Z,979.689
2024-01-04T21:54:49.799Z,979.714
2024-01-04T21:56:49.577Z,979.595
2024-01-04T21:58:49.366Z,979.645
2024-01-04T22:00:50.279Z,979.465
2024-01-04T22:02:50.297Z,979.479
2024-01-04T22:04:50.315Z,979.414
2024-01-04T22:06:50.200Z,979.318
2024-01-04T22:08:50.095Z,979.452
2024-01-04T22:10:49.876Z,979.360
2024-01-04T22:12:49.673Z,979.354
2024-01-04T22:14:49.584Z,979.282
2024-01-04T22:16:50.309Z,979.426
2024-01-04T22:18:50.249Z,979.513
2024-01-04T22:20:50.117Z,979.478
2024-01-04T22:22:49.940Z,979.348
2024-01-04T22:24:51.522Z,979.330
2024-01-04T22:26:49.848Z,979.294
2024-01-04T22:28:49.595Z,979.398
2024-01-04T22:30:49.543Z,979.377
2024-01-04T22:32:49.563Z,979.318
2024-01-04T22:34:49.565Z,979.406
2024-01-04T22:36:49.464Z,979.449
2024-01-04T22:38:50.367Z,979.402
2024-01-04T22:40:50.130Z,979.343
2024-01-04T22:42:49.914Z,979.410
2024-01-04T22:44:49.772Z,979.336
2024-01-04T22:46:49.528Z,979.261
2024-01-04T22:48:50.346Z,979.344
2024-01-04T22:50:50.153Z,979.219
2024-01-04T22:52:49.951Z,979.280
2024-01-04T22:54:49.729Z,979.386
2024-01-04T22:56:49.646Z,979.354
2024-01-04T22:58:49.423Z,979.375
2024-01-04T23:00:50.275Z,979.316
2024-01-04T23:02:50.035Z,979.244
2024-01-04T23:04:49.824Z,979.322
2024-01-04T23:06:49.512Z,979.273
2024-01-04T23:08:50.347Z,979.266
2024-01-04T23:10:50.104Z,979.380
2024-01-04T23:12:49.884Z,979.339
2024-01-04T23:14:49.738Z,979.298
2024-01-04T23:16:49.585Z,979.264
2024-01-04T23:18:49.721Z,979.293
2024-01-04T23:20:49.669Z,979.329
2024-01-04T23:22:49.462Z,979.216
2024-01-04T23:24:50.179Z,979.337
2024-01-04T23:26:50.064Z,979.256
2024-01-04T23:28:49.825Z,979.259
2024-01-04T23:30:49.749Z,979.278
2024-01-04T23:32:49.564Z,979.344
2024-01-04T23:34:49.642Z,979.314
2024-01-04T23:36:49.519Z,979.442
2024-01-04T23:38:50.411Z,979.312
2024-01-04T23:40:50.102Z,979.259
2024-01-04T23:42:49.902Z,979.343
2024-01-04T23:44:49.761Z,979.302
2024-01-04T23:46:49.534Z,979.148
2024-01-04T23:48:49.490Z,979.169
2024-01-04T23:50:49.423Z,979.063
2024-01-04T23:52:50.190Z,978.963
2024-01-04T23:54:49.998Z,979.003
2024-01-04T23:56:49.622Z,979.005
2024-01-04T23:58:50.217Z,979.079
